sensor_id;sensor_type;location;lat;lon;timestamp;P1;durP1;ratioP1;P2;durP2;ratioP2
72427;SDS011;60419;48.880;18.036;2022-07-23T00:00:08;11.10;;;8.18;;
72427;SDS011;60419;48.880;18.036;2022-07-23T00:02:54;11.60;;;8.02;;
72427;SDS011;60419;48.880;18.036;2022-07-23T00:05:40;12.10;;;7.85;;
72427;SDS011;60419;48.880;18.036;2022-07-23T00:08:25;10.73;;;7.53;;
72427;SDS011;60419;48.880;18.036;2022-07-23T00:11:11;11.73;;;7.78;;
72427;SDS011;60419;48.880;18.036;2022-07-23T00:13:56;11.43;;;7.82;;
72427;SDS011;60419;48.880;18.036;2022-07-23T00:16:42;13.27;;;8.23;;
72427;SDS011;60419;48.880;18.036;2022-07-23T00:19:28;9.40;;;7.80;;
72427;SDS011;60419;48.880;18.036;2022-07-23T00:22:15;9.60;;;7.43;;
72427;SDS011;60419;48.880;18.036;2022-07-23T00:25:00;10.15;;;8.13;;
72427;SDS011;60419;48.880;18.036;2022-07-23T00:27:46;15.02;;;9.15;;
72427;SDS011;60419;48.880;18.036;2022-07-23T00:30:31;10.95;;;7.70;;
72427;SDS011;60419;48.880;18.036;2022-07-23T00:33:17;10.63;;;7.68;;
72427;SDS011;60419;48.880;18.036;2022-07-23T00:36:03;8.77;;;7.50;;
72427;SDS011;60419;48.880;18.036;2022-07-23T00:38:49;10.77;;;7.72;;
72427;SDS011;60419;48.880;18.036;2022-07-23T00:41:35;11.15;;;8.18;;
72427;SDS011;60419;48.880;18.036;2022-07-23T00:44:21;11.77;;;8.23;;
72427;SDS011;60419;48.880;18.036;2022-07-23T00:47:08;12.65;;;8.27;;
72427;SDS011;60419;48.880;18.036;2022-07-23T00:49:53;9.93;;;7.75;;
72427;SDS011;60419;48.880;18.036;2022-07-23T00:52:38;11.25;;;8.20;;
72427;SDS011;60419;48.880;18.036;2022-07-23T00:55:24;11.38;;;8.38;;
72427;SDS011;60419;48.880;18.036;2022-07-23T00:58:11;11.60;;;8.60;;
72427;SDS011;60419;48.880;18.036;2022-07-23T01:00:57;10.23;;;8.02;;
72427;SDS011;60419;48.880;18.036;2022-07-23T01:03:42;12.55;;;8.38;;
72427;SDS011;60419;48.880;18.036;2022-07-23T01:06:28;9.98;;;8.63;;
72427;SDS011;60419;48.880;18.036;2022-07-23T01:09:14;11.60;;;8.73;;
72427;SDS011;60419;48.880;18.036;2022-07-23T01:11:59;11.95;;;8.55;;
72427;SDS011;60419;48.880;18.036;2022-07-23T01:14:45;10.65;;;8.05;;
72427;SDS011;60419;48.880;18.036;2022-07-23T01:17:38;13.05;;;8.93;;
72427;SDS011;60419;48.880;18.036;2022-07-23T01:20:23;12.32;;;8.45;;
72427;SDS011;60419;48.880;18.036;2022-07-23T01:23:09;11.20;;;8.80;;
72427;SDS011;60419;48.880;18.036;2022-07-23T01:25:54;12.38;;;8.43;;
72427;SDS011;60419;48.880;18.036;2022-07-23T01:28:40;11.45;;;8.48;;
72427;SDS011;60419;48.880;18.036;2022-07-23T01:31:26;11.52;;;8.63;;
72427;SDS011;60419;48.880;18.036;2022-07-23T01:34:11;11.95;;;8.75;;
72427;SDS011;60419;48.880;18.036;2022-07-23T01:36:57;10.30;;;8.65;;
72427;SDS011;60419;48.880;18.036;2022-07-23T01:39:42;11.43;;;8.23;;
72427;SDS011;60419;48.880;18.036;2022-07-23T01:42:27;13.65;;;9.18;;
72427;SDS011;60419;48.880;18.036;2022-07-23T01:45:13;10.93;;;8.98;;
72427;SDS011;60419;48.880;18.036;2022-07-23T01:47:58;15.63;;;8.75;;
72427;SDS011;60419;48.880;18.036;2022-07-23T01:50:45;11.27;;;8.98;;
72427;SDS011;60419;48.880;18.036;2022-07-23T01:53:31;11.95;;;8.80;;
72427;SDS011;60419;48.880;18.036;2022-07-23T01:56:17;12.07;;;9.10;;
72427;SDS011;60419;48.880;18.036;2022-07-23T01:59:03;13.52;;;8.65;;
72427;SDS011;60419;48.880;18.036;2022-07-23T02:01:49;11.70;;;8.60;;
72427;SDS011;60419;48.880;18.036;2022-07-23T02:04:37;10.40;;;8.18;;
72427;SDS011;60419;48.880;18.036;2022-07-23T02:07:23;12.52;;;9.20;;
72427;SDS011;60419;48.880;18.036;2022-07-23T02:10:08;12.30;;;8.50;;
72427;SDS011;60419;48.880;18.036;2022-07-23T02:12:54;10.13;;;8.10;;
72427;SDS011;60419;48.880;18.036;2022-07-23T02:15:39;11.60;;;8.65;;
72427;SDS011;60419;48.880;18.036;2022-07-23T02:18:25;12.20;;;8.23;;
72427;SDS011;60419;48.880;18.036;2022-07-23T02:21:10;11.10;;;8.27;;
72427;SDS011;60419;48.880;18.036;2022-07-23T02:23:55;10.13;;;8.02;;
72427;SDS011;60419;48.880;18.036;2022-07-23T02:26:42;10.95;;;8.70;;
72427;SDS011;60419;48.880;18.036;2022-07-23T02:29:27;11.80;;;8.90;;
72427;SDS011;60419;48.880;18.036;2022-07-23T02:32:13;10.48;;;8.85;;
72427;SDS011;60419;48.880;18.036;2022-07-23T02:34:58;11.00;;;8.70;;
72427;SDS011;60419;48.880;18.036;2022-07-23T02:37:44;13.07;;;8.65;;
72427;SDS011;60419;48.880;18.036;2022-07-23T02:40:29;12.18;;;9.15;;
72427;SDS011;60419;48.880;18.036;2022-07-23T02:43:14;11.80;;;9.13;;
72427;SDS011;60419;48.880;18.036;2022-07-23T02:46:00;11.27;;;8.93;;
72427;SDS011;60419;48.880;18.036;2022-07-23T02:48:46;11.65;;;9.18;;
72427;SDS011;60419;48.880;18.036;2022-07-23T02:51:31;10.40;;;8.45;;
72427;SDS011;60419;48.880;18.036;2022-07-23T02:54:16;12.75;;;9.18;;
72427;SDS011;60419;48.880;18.036;2022-07-23T02:57:03;11.48;;;9.05;;
72427;SDS011;60419;48.880;18.036;2022-07-23T02:59:48;10.65;;;8.70;;
72427;SDS011;60419;48.880;18.036;2022-07-23T03:02:34;13.23;;;9.07;;
72427;SDS011;60419;48.880;18.036;2022-07-23T03:05:19;14.45;;;10.20;;
72427;SDS011;60419;48.880;18.036;2022-07-23T03:08:05;12.10;;;9.40;;
72427;SDS011;60419;48.880;18.036;2022-07-23T03:10:50;14.30;;;9.15;;
72427;SDS011;60419;48.880;18.036;2022-07-23T03:13:36;10.95;;;9.13;;
72427;SDS011;60419;48.880;18.036;2022-07-23T03:16:22;11.32;;;9.50;;
72427;SDS011;60419;48.880;18.036;2022-07-23T03:19:08;13.82;;;9.23;;
72427;SDS011;60419;48.880;18.036;2022-07-23T03:21:53;12.93;;;9.48;;
72427;SDS011;60419;48.880;18.036;2022-07-23T03:24:38;14.50;;;9.57;;
72427;SDS011;60419;48.880;18.036;2022-07-23T03:27:39;14.20;;;9.55;;
72427;SDS011;60419;48.880;18.036;2022-07-23T03:30:24;11.00;;;8.98;;
72427;SDS011;60419;48.880;18.036;2022-07-23T03:33:09;11.63;;;8.52;;
72427;SDS011;60419;48.880;18.036;2022-07-23T03:35:55;11.30;;;8.88;;
72427;SDS011;60419;48.880;18.036;2022-07-23T03:38:40;14.25;;;9.82;;
72427;SDS011;60419;48.880;18.036;2022-07-23T03:41:25;11.30;;;8.95;;
72427;SDS011;60419;48.880;18.036;2022-07-23T03:44:11;11.20;;;9.30;;
72427;SDS011;60419;48.880;18.036;2022-07-23T03:46:56;13.70;;;9.88;;
72427;SDS011;60419;48.880;18.036;2022-07-23T03:49:42;10.85;;;9.20;;
72427;SDS011;60419;48.880;18.036;2022-07-23T03:52:28;11.75;;;9.18;;
72427;SDS011;60419;48.880;18.036;2022-07-23T03:55:13;12.27;;;8.98;;
72427;SDS011;60419;48.880;18.036;2022-07-23T03:57:59;12.13;;;9.43;;
72427;SDS011;60419;48.880;18.036;2022-07-23T04:00:44;11.32;;;9.13;;
72427;SDS011;60419;48.880;18.036;2022-07-23T04:03:29;13.45;;;9.30;;
72427;SDS011;60419;48.880;18.036;2022-07-23T04:06:15;12.20;;;9.45;;
72427;SDS011;60419;48.880;18.036;2022-07-23T04:09:01;11.98;;;9.77;;
72427;SDS011;60419;48.880;18.036;2022-07-23T04:11:47;11.52;;;8.55;;
72427;SDS011;60419;48.880;18.036;2022-07-23T04:14:33;11.38;;;8.75;;
72427;SDS011;60419;48.880;18.036;2022-07-23T04:17:18;11.18;;;8.52;;
72427;SDS011;60419;48.880;18.036;2022-07-23T04:20:04;12.68;;;8.77;;
72427;SDS011;60419;48.880;18.036;2022-07-23T04:22:50;11.50;;;8.75;;
72427;SDS011;60419;48.880;18.036;2022-07-23T04:25:35;12.93;;;9.07;;
72427;SDS011;60419;48.880;18.036;2022-07-23T04:28:21;13.82;;;9.63;;
72427;SDS011;60419;48.880;18.036;2022-07-23T04:31:06;13.50;;;9.15;;
72427;SDS011;60419;48.880;18.036;2022-07-23T04:33:52;17.13;;;9.30;;
72427;SDS011;60419;48.880;18.036;2022-07-23T04:36:37;10.77;;;9.23;;
72427;SDS011;60419;48.880;18.036;2022-07-23T04:39:22;10.73;;;8.77;;
72427;SDS011;60419;48.880;18.036;2022-07-23T04:42:08;12.00;;;9.30;;
72427;SDS011;60419;48.880;18.036;2022-07-23T04:44:53;10.90;;;9.10;;
72427;SDS011;60419;48.880;18.036;2022-07-23T04:47:38;11.05;;;9.30;;
72427;SDS011;60419;48.880;18.036;2022-07-23T04:50:24;12.05;;;9.65;;
72427;SDS011;60419;48.880;18.036;2022-07-23T04:53:09;13.07;;;9.23;;
72427;SDS011;60419;48.880;18.036;2022-07-23T04:55:55;13.68;;;9.98;;
72427;SDS011;60419;48.880;18.036;2022-07-23T04:58:40;11.93;;;9.13;;
72427;SDS011;60419;48.880;18.036;2022-07-23T05:01:26;11.95;;;9.68;;
72427;SDS011;60419;48.880;18.036;2022-07-23T05:04:11;11.88;;;9.07;;
72427;SDS011;60419;48.880;18.036;2022-07-23T05:06:57;11.98;;;9.63;;
72427;SDS011;60419;48.880;18.036;2022-07-23T05:09:42;12.13;;;9.48;;
72427;SDS011;60419;48.880;18.036;2022-07-23T05:12:28;12.77;;;9.00;;
72427;SDS011;60419;48.880;18.036;2022-07-23T05:15:13;11.18;;;8.90;;
72427;SDS011;60419;48.880;18.036;2022-07-23T05:17:59;11.27;;;9.18;;
72427;SDS011;60419;48.880;18.036;2022-07-23T05:20:44;13.52;;;9.02;;
72427;SDS011;60419;48.880;18.036;2022-07-23T05:23:29;11.07;;;8.50;;
72427;SDS011;60419;48.880;18.036;2022-07-23T05:26:15;11.75;;;9.18;;
72427;SDS011;60419;48.880;18.036;2022-07-23T05:29:00;10.85;;;9.27;;
72427;SDS011;60419;48.880;18.036;2022-07-23T05:31:46;12.85;;;8.95;;
72427;SDS011;60419;48.880;18.036;2022-07-23T05:34:31;11.13;;;8.70;;
72427;SDS011;60419;48.880;18.036;2022-07-23T05:37:16;10.90;;;8.80;;
72427;SDS011;60419;48.880;18.036;2022-07-23T05:40:03;12.52;;;8.95;;
72427;SDS011;60419;48.880;18.036;2022-07-23T05:42:51;11.45;;;8.60;;
72427;SDS011;60419;48.880;18.036;2022-07-23T05:45:36;11.38;;;8.68;;
72427;SDS011;60419;48.880;18.036;2022-07-23T05:48:21;12.57;;;8.70;;
72427;SDS011;60419;48.880;18.036;2022-07-23T05:51:07;12.02;;;9.60;;
72427;SDS011;60419;48.880;18.036;2022-07-23T05:53:54;10.57;;;8.80;;
72427;SDS011;60419;48.880;18.036;2022-07-23T05:56:40;10.45;;;8.77;;
72427;SDS011;60419;48.880;18.036;2022-07-23T05:59:25;12.80;;;9.07;;
72427;SDS011;60419;48.880;18.036;2022-07-23T06:02:10;10.68;;;8.60;;
72427;SDS011;60419;48.880;18.036;2022-07-23T06:04:56;10.45;;;8.57;;
72427;SDS011;60419;48.880;18.036;2022-07-23T06:07:41;11.63;;;8.63;;
72427;SDS011;60419;48.880;18.036;2022-07-23T06:10:27;14.10;;;8.80;;
72427;SDS011;60419;48.880;18.036;2022-07-23T06:13:12;12.80;;;8.68;;
72427;SDS011;60419;48.880;18.036;2022-07-23T06:15:58;14.05;;;9.00;;
72427;SDS011;60419;48.880;18.036;2022-07-23T06:18:43;12.85;;;8.65;;
72427;SDS011;60419;48.880;18.036;2022-07-23T06:21:28;13.23;;;8.63;;
72427;SDS011;60419;48.880;18.036;2022-07-23T06:24:14;12.98;;;8.95;;
72427;SDS011;60419;48.880;18.036;2022-07-23T06:26:59;16.13;;;8.82;;
72427;SDS011;60419;48.880;18.036;2022-07-23T06:29:45;11.23;;;8.43;;
72427;SDS011;60419;48.880;18.036;2022-07-23T06:32:30;11.90;;;8.68;;
72427;SDS011;60419;48.880;18.036;2022-07-23T06:35:16;11.25;;;8.32;;
72427;SDS011;60419;48.880;18.036;2022-07-23T06:38:02;11.52;;;7.47;;
72427;SDS011;60419;48.880;18.036;2022-07-23T06:40:47;12.98;;;8.52;;
72427;SDS011;60419;48.880;18.036;2022-07-23T06:43:32;11.18;;;7.93;;
72427;SDS011;60419;48.880;18.036;2022-07-23T06:46:18;11.77;;;8.90;;
72427;SDS011;60419;48.880;18.036;2022-07-23T06:49:04;11.60;;;8.35;;
72427;SDS011;60419;48.880;18.036;2022-07-23T06:51:49;11.40;;;8.20;;
72427;SDS011;60419;48.880;18.036;2022-07-23T06:54:34;12.98;;;8.85;;
72427;SDS011;60419;48.880;18.036;2022-07-23T06:57:20;12.57;;;7.85;;
72427;SDS011;60419;48.880;18.036;2022-07-23T07:00:06;13.50;;;9.07;;
72427;SDS011;60419;48.880;18.036;2022-07-23T07:02:53;10.18;;;7.55;;
72427;SDS011;60419;48.880;18.036;2022-07-23T07:05:38;11.68;;;7.80;;
72427;SDS011;60419;48.880;18.036;2022-07-23T07:08:27;10.15;;;8.10;;
72427;SDS011;60419;48.880;18.036;2022-07-23T07:11:12;15.07;;;8.18;;
72427;SDS011;60419;48.880;18.036;2022-07-23T07:13:58;11.02;;;8.45;;
72427;SDS011;60419;48.880;18.036;2022-07-23T07:16:43;11.48;;;7.68;;
72427;SDS011;60419;48.880;18.036;2022-07-23T07:19:29;11.95;;;7.75;;
72427;SDS011;60419;48.880;18.036;2022-07-23T07:22:14;10.27;;;7.50;;
72427;SDS011;60419;48.880;18.036;2022-07-23T07:25:00;11.57;;;7.47;;
72427;SDS011;60419;48.880;18.036;2022-07-23T07:27:45;11.48;;;7.85;;
72427;SDS011;60419;48.880;18.036;2022-07-23T07:30:30;12.55;;;7.68;;
72427;SDS011;60419;48.880;18.036;2022-07-23T07:33:16;9.02;;;7.10;;
72427;SDS011;60419;48.880;18.036;2022-07-23T07:36:01;11.43;;;7.22;;
72427;SDS011;60419;48.880;18.036;2022-07-23T07:38:47;10.70;;;7.28;;
72427;SDS011;60419;48.880;18.036;2022-07-23T07:41:33;11.57;;;7.38;;
72427;SDS011;60419;48.880;18.036;2022-07-23T07:44:18;9.60;;;7.03;;
72427;SDS011;60419;48.880;18.036;2022-07-23T07:47:04;10.10;;;7.00;;
72427;SDS011;60419;48.880;18.036;2022-07-23T07:49:49;9.77;;;7.22;;
72427;SDS011;60419;48.880;18.036;2022-07-23T07:52:35;10.57;;;7.30;;
72427;SDS011;60419;48.880;18.036;2022-07-23T07:55:23;12.45;;;7.03;;
72427;SDS011;60419;48.880;18.036;2022-07-23T07:58:09;9.15;;;6.85;;
72427;SDS011;60419;48.880;18.036;2022-07-23T08:00:54;8.93;;;6.78;;
72427;SDS011;60419;48.880;18.036;2022-07-23T08:03:40;8.52;;;7.03;;
72427;SDS011;60419;48.880;18.036;2022-07-23T08:06:25;10.93;;;7.60;;
72427;SDS011;60419;48.880;18.036;2022-07-23T08:09:11;11.50;;;7.28;;
72427;SDS011;60419;48.880;18.036;2022-07-23T08:11:56;10.02;;;7.30;;
72427;SDS011;60419;48.880;18.036;2022-07-23T08:14:42;9.32;;;6.90;;
72427;SDS011;60419;48.880;18.036;2022-07-23T08:17:27;8.55;;;6.93;;
72427;SDS011;60419;48.880;18.036;2022-07-23T08:20:13;10.07;;;7.40;;
72427;SDS011;60419;48.880;18.036;2022-07-23T08:23:04;9.55;;;7.05;;
72427;SDS011;60419;48.880;18.036;2022-07-23T08:25:51;8.98;;;7.32;;
72427;SDS011;60419;48.880;18.036;2022-07-23T08:28:37;8.55;;;6.65;;
72427;SDS011;60419;48.880;18.036;2022-07-23T08:31:23;7.95;;;6.80;;
72427;SDS011;60419;48.880;18.036;2022-07-23T08:34:08;9.23;;;6.93;;
72427;SDS011;60419;48.880;18.036;2022-07-23T08:36:53;8.98;;;6.95;;
72427;SDS011;60419;48.880;18.036;2022-07-23T08:39:39;10.50;;;7.15;;
72427;SDS011;60419;48.880;18.036;2022-07-23T08:42:24;10.15;;;6.75;;
72427;SDS011;60419;48.880;18.036;2022-07-23T08:45:10;11.00;;;7.20;;
72427;SDS011;60419;48.880;18.036;2022-07-23T08:47:57;10.43;;;7.55;;
72427;SDS011;60419;48.880;18.036;2022-07-23T08:50:47;9.60;;;6.47;;
72427;SDS011;60419;48.880;18.036;2022-07-23T08:53:37;8.75;;;7.30;;
72427;SDS011;60419;48.880;18.036;2022-07-23T08:56:23;8.13;;;6.45;;
72427;SDS011;60419;48.880;18.036;2022-07-23T08:59:09;8.05;;;6.40;;
72427;SDS011;60419;48.880;18.036;2022-07-23T09:01:58;8.18;;;6.40;;
72427;SDS011;60419;48.880;18.036;2022-07-23T09:04:45;8.73;;;6.43;;
72427;SDS011;60419;48.880;18.036;2022-07-23T09:07:30;9.23;;;7.00;;
72427;SDS011;60419;48.880;18.036;2022-07-23T09:10:16;12.68;;;6.88;;
72427;SDS011;60419;48.880;18.036;2022-07-23T09:13:01;14.32;;;6.68;;
72427;SDS011;60419;48.880;18.036;2022-07-23T09:15:48;9.38;;;6.68;;
72427;SDS011;60419;48.880;18.036;2022-07-23T09:21:35;8.35;;;6.05;;
72427;SDS011;60419;48.880;18.036;2022-07-23T09:24:21;9.07;;;5.75;;
72427;SDS011;60419;48.880;18.036;2022-07-23T09:27:06;8.15;;;5.88;;
72427;SDS011;60419;48.880;18.036;2022-07-23T09:29:55;8.90;;;5.90;;
72427;SDS011;60419;48.880;18.036;2022-07-23T09:32:41;10.93;;;5.73;;
72427;SDS011;60419;48.880;18.036;2022-07-23T09:35:46;7.82;;;5.93;;
72427;SDS011;60419;48.880;18.036;2022-07-23T09:38:34;7.63;;;5.80;;
72427;SDS011;60419;48.880;18.036;2022-07-23T09:41:38;7.95;;;5.60;;
72427;SDS011;60419;48.880;18.036;2022-07-23T09:44:32;8.73;;;5.72;;
72427;SDS011;60419;48.880;18.036;2022-07-23T09:47:28;8.13;;;5.85;;
72427;SDS011;60419;48.880;18.036;2022-07-23T09:50:15;8.40;;;5.53;;
72427;SDS011;60419;48.880;18.036;2022-07-23T09:55:50;9.67;;;5.90;;
72427;SDS011;60419;48.880;18.036;2022-07-23T09:58:38;6.53;;;5.43;;
72427;SDS011;60419;48.880;18.036;2022-07-23T10:01:31;6.30;;;5.32;;
72427;SDS011;60419;48.880;18.036;2022-07-23T10:04:16;8.18;;;5.72;;
72427;SDS011;60419;48.880;18.036;2022-07-23T10:07:04;7.65;;;5.63;;
72427;SDS011;60419;48.880;18.036;2022-07-23T10:09:52;7.87;;;5.30;;
72427;SDS011;60419;48.880;18.036;2022-07-23T10:12:38;8.75;;;5.40;;
72427;SDS011;60419;48.880;18.036;2022-07-23T10:15:36;8.45;;;6.07;;
72427;SDS011;60419;48.880;18.036;2022-07-23T10:18:22;7.75;;;5.47;;
72427;SDS011;60419;48.880;18.036;2022-07-23T10:21:08;6.10;;;4.53;;
72427;SDS011;60419;48.880;18.036;2022-07-23T10:23:58;7.13;;;5.32;;
72427;SDS011;60419;48.880;18.036;2022-07-23T10:33:54;7.10;;;4.93;;
72427;SDS011;60419;48.880;18.036;2022-07-23T10:36:49;7.72;;;5.13;;
72427;SDS011;60419;48.880;18.036;2022-07-23T10:39:40;5.50;;;4.85;;
72427;SDS011;60419;48.880;18.036;2022-07-23T10:42:29;6.65;;;5.25;;
72427;SDS011;60419;48.880;18.036;2022-07-23T10:48:25;7.20;;;4.60;;
72427;SDS011;60419;48.880;18.036;2022-07-23T10:51:12;6.95;;;4.25;;
72427;SDS011;60419;48.880;18.036;2022-07-23T10:53:59;4.88;;;3.90;;
72427;SDS011;60419;48.880;18.036;2022-07-23T11:00:13;5.72;;;4.18;;
72427;SDS011;60419;48.880;18.036;2022-07-23T11:02:52;6.25;;;4.53;;
72427;SDS011;60419;48.880;18.036;2022-07-23T11:05:42;5.88;;;4.20;;
72427;SDS011;60419;48.880;18.036;2022-07-23T11:08:29;7.00;;;4.00;;
72427;SDS011;60419;48.880;18.036;2022-07-23T11:11:15;8.80;;;4.35;;
72427;SDS011;60419;48.880;18.036;2022-07-23T11:14:00;7.32;;;4.28;;
72427;SDS011;60419;48.880;18.036;2022-07-23T11:16:46;9.38;;;4.25;;
72427;SDS011;60419;48.880;18.036;2022-07-23T11:20:04;7.75;;;4.15;;
72427;SDS011;60419;48.880;18.036;2022-07-23T11:22:56;6.20;;;3.90;;
72427;SDS011;60419;48.880;18.036;2022-07-23T11:25:42;7.30;;;4.30;;
72427;SDS011;60419;48.880;18.036;2022-07-23T11:28:29;10.68;;;4.15;;
72427;SDS011;60419;48.880;18.036;2022-07-23T11:31:17;6.00;;;3.45;;
72427;SDS011;60419;48.880;18.036;2022-07-23T11:37:31;5.50;;;4.00;;
72427;SDS011;60419;48.880;18.036;2022-07-23T11:40:19;5.82;;;3.97;;
72427;SDS011;60419;48.880;18.036;2022-07-23T11:43:06;7.70;;;4.10;;
72427;SDS011;60419;48.880;18.036;2022-07-23T11:45:56;7.35;;;4.38;;
72427;SDS011;60419;48.880;18.036;2022-07-23T11:48:44;8.10;;;4.18;;
72427;SDS011;60419;48.880;18.036;2022-07-23T11:51:29;6.13;;;3.72;;
72427;SDS011;60419;48.880;18.036;2022-07-23T11:54:16;8.68;;;4.20;;
72427;SDS011;60419;48.880;18.036;2022-07-23T11:57:02;4.65;;;3.78;;
72427;SDS011;60419;48.880;18.036;2022-07-23T11:59:50;8.70;;;4.45;;
72427;SDS011;60419;48.880;18.036;2022-07-23T12:05:29;6.45;;;4.53;;
72427;SDS011;60419;48.880;18.036;2022-07-23T12:08:16;6.38;;;4.15;;
72427;SDS011;60419;48.880;18.036;2022-07-23T12:11:02;5.50;;;4.05;;
72427;SDS011;60419;48.880;18.036;2022-07-23T12:13:55;7.82;;;4.05;;
72427;SDS011;60419;48.880;18.036;2022-07-23T12:16:42;5.32;;;4.00;;
72427;SDS011;60419;48.880;18.036;2022-07-23T12:19:28;6.57;;;4.70;;
72427;SDS011;60419;48.880;18.036;2022-07-23T12:22:13;7.20;;;4.57;;
72427;SDS011;60419;48.880;18.036;2022-07-23T12:25:00;6.45;;;4.35;;
72427;SDS011;60419;48.880;18.036;2022-07-23T12:27:58;7.53;;;4.65;;
72427;SDS011;60419;48.880;18.036;2022-07-23T12:30:52;6.55;;;4.82;;
72427;SDS011;60419;48.880;18.036;2022-07-23T12:33:39;7.78;;;4.75;;
72427;SDS011;60419;48.880;18.036;2022-07-23T12:36:25;11.32;;;5.10;;
72427;SDS011;60419;48.880;18.036;2022-07-23T12:39:30;10.93;;;4.85;;
72427;SDS011;60419;48.880;18.036;2022-07-23T12:42:16;7.00;;;4.65;;
72427;SDS011;60419;48.880;18.036;2022-07-23T12:45:03;6.45;;;4.93;;
72427;SDS011;60419;48.880;18.036;2022-07-23T12:48:27;6.40;;;4.88;;
72427;SDS011;60419;48.880;18.036;2022-07-23T12:51:07;5.35;;;4.55;;
72427;SDS011;60419;48.880;18.036;2022-07-23T12:54:07;6.38;;;4.50;;
72427;SDS011;60419;48.880;18.036;2022-07-23T12:56:54;5.82;;;4.20;;
72427;SDS011;60419;48.880;18.036;2022-07-23T12:59:40;6.93;;;4.65;;
72427;SDS011;60419;48.880;18.036;2022-07-23T13:02:25;6.50;;;4.20;;
72427;SDS011;60419;48.880;18.036;2022-07-23T13:05:11;7.68;;;4.10;;
72427;SDS011;60419;48.880;18.036;2022-07-23T13:07:56;5.88;;;3.95;;
72427;SDS011;60419;48.880;18.036;2022-07-23T13:10:42;6.53;;;3.92;;
72427;SDS011;60419;48.880;18.036;2022-07-23T13:13:28;5.28;;;3.60;;
72427;SDS011;60419;48.880;18.036;2022-07-23T13:16:15;7.22;;;3.90;;
72427;SDS011;60419;48.880;18.036;2022-07-23T13:19:01;8.10;;;3.70;;
72427;SDS011;60419;48.880;18.036;2022-07-23T13:21:47;5.22;;;4.25;;
72427;SDS011;60419;48.880;18.036;2022-07-23T13:24:33;5.40;;;3.65;;
72427;SDS011;60419;48.880;18.036;2022-07-23T13:27:18;7.07;;;3.72;;
72427;SDS011;60419;48.880;18.036;2022-07-23T13:30:04;6.90;;;4.28;;
72427;SDS011;60419;48.880;18.036;2022-07-23T13:32:50;9.95;;;4.18;;
72427;SDS011;60419;48.880;18.036;2022-07-23T13:35:35;7.00;;;3.88;;
72427;SDS011;60419;48.880;18.036;2022-07-23T13:38:22;8.13;;;4.40;;
72427;SDS011;60419;48.880;18.036;2022-07-23T13:41:08;5.95;;;4.13;;
72427;SDS011;60419;48.880;18.036;2022-07-23T13:43:53;6.45;;;3.80;;
72427;SDS011;60419;48.880;18.036;2022-07-23T13:46:40;9.23;;;4.50;;
72427;SDS011;60419;48.880;18.036;2022-07-23T13:49:26;7.28;;;4.30;;
72427;SDS011;60419;48.880;18.036;2022-07-23T13:52:11;5.97;;;3.95;;
72427;SDS011;60419;48.880;18.036;2022-07-23T13:54:57;5.35;;;4.10;;
72427;SDS011;60419;48.880;18.036;2022-07-23T13:57:42;8.18;;;5.22;;
72427;SDS011;60419;48.880;18.036;2022-07-23T14:00:28;6.32;;;4.88;;
72427;SDS011;60419;48.880;18.036;2022-07-23T14:03:15;8.05;;;5.32;;
72427;SDS011;60419;48.880;18.036;2022-07-23T14:06:02;8.95;;;4.90;;
72427;SDS011;60419;48.880;18.036;2022-07-23T14:08:47;8.50;;;5.38;;
72427;SDS011;60419;48.880;18.036;2022-07-23T14:11:33;7.30;;;5.57;;
72427;SDS011;60419;48.880;18.036;2022-07-23T14:14:18;6.05;;;5.18;;
72427;SDS011;60419;48.880;18.036;2022-07-23T14:17:04;7.25;;;4.80;;
72427;SDS011;60419;48.880;18.036;2022-07-23T14:19:50;7.90;;;5.00;;
72427;SDS011;60419;48.880;18.036;2022-07-23T14:22:35;6.35;;;4.85;;
72427;SDS011;60419;48.880;18.036;2022-07-23T14:25:21;9.10;;;5.20;;
72427;SDS011;60419;48.880;18.036;2022-07-23T14:28:07;7.00;;;4.82;;
72427;SDS011;60419;48.880;18.036;2022-07-23T14:30:52;6.65;;;4.55;;
72427;SDS011;60419;48.880;18.036;2022-07-23T14:33:38;7.55;;;4.85;;
72427;SDS011;60419;48.880;18.036;2022-07-23T14:36:23;10.82;;;5.00;;
72427;SDS011;60419;48.880;18.036;2022-07-23T14:39:09;7.25;;;4.90;;
72427;SDS011;60419;48.880;18.036;2022-07-23T14:41:54;5.07;;;4.55;;
72427;SDS011;60419;48.880;18.036;2022-07-23T14:44:40;6.35;;;4.50;;
72427;SDS011;60419;48.880;18.036;2022-07-23T14:47:27;7.20;;;4.53;;
72427;SDS011;60419;48.880;18.036;2022-07-23T14:50:12;6.95;;;4.68;;
72427;SDS011;60419;48.880;18.036;2022-07-23T14:52:58;5.40;;;4.35;;
72427;SDS011;60419;48.880;18.036;2022-07-23T14:55:44;5.53;;;4.45;;
72427;SDS011;60419;48.880;18.036;2022-07-23T14:58:29;7.07;;;4.47;;
72427;SDS011;60419;48.880;18.036;2022-07-23T15:01:15;6.78;;;4.70;;
72427;SDS011;60419;48.880;18.036;2022-07-23T15:04:00;7.25;;;4.00;;
72427;SDS011;60419;48.880;18.036;2022-07-23T15:06:46;5.00;;;4.15;;
72427;SDS011;60419;48.880;18.036;2022-07-23T15:09:32;11.77;;;5.07;;
72427;SDS011;60419;48.880;18.036;2022-07-23T15:12:18;5.65;;;4.75;;
72427;SDS011;60419;48.880;18.036;2022-07-23T15:15:04;7.00;;;4.38;;
72427;SDS011;60419;48.880;18.036;2022-07-23T15:17:50;8.15;;;4.97;;
72427;SDS011;60419;48.880;18.036;2022-07-23T15:20:35;7.85;;;4.43;;
72427;SDS011;60419;48.880;18.036;2022-07-23T15:23:22;7.25;;;4.88;;
72427;SDS011;60419;48.880;18.036;2022-07-23T15:26:07;8.68;;;5.10;;
72427;SDS011;60419;48.880;18.036;2022-07-23T15:28:53;9.35;;;4.97;;
72427;SDS011;60419;48.880;18.036;2022-07-23T15:31:39;5.60;;;4.22;;
72427;SDS011;60419;48.880;18.036;2022-07-23T15:34:25;5.25;;;3.38;;
72427;SDS011;60419;48.880;18.036;2022-07-23T15:37:11;5.35;;;4.30;;
72427;SDS011;60419;48.880;18.036;2022-07-23T15:39:57;7.35;;;4.20;;
72427;SDS011;60419;48.880;18.036;2022-07-23T15:42:42;6.10;;;3.63;;
72427;SDS011;60419;48.880;18.036;2022-07-23T15:45:30;7.57;;;4.18;;
72427;SDS011;60419;48.880;18.036;2022-07-23T15:48:17;5.53;;;4.00;;
72427;SDS011;60419;48.880;18.036;2022-07-23T15:51:04;10.30;;;5.25;;
72427;SDS011;60419;48.880;18.036;2022-07-23T15:53:50;13.43;;;5.75;;
72427;SDS011;60419;48.880;18.036;2022-07-23T15:56:35;11.40;;;5.88;;
72427;SDS011;60419;48.880;18.036;2022-07-23T15:59:21;10.00;;;5.97;;
72427;SDS011;60419;48.880;18.036;2022-07-23T16:02:07;7.13;;;5.68;;
72427;SDS011;60419;48.880;18.036;2022-07-23T16:04:52;8.38;;;6.10;;
72427;SDS011;60419;48.880;18.036;2022-07-23T16:07:38;9.32;;;5.90;;
72427;SDS011;60419;48.880;18.036;2022-07-23T16:10:23;11.38;;;6.68;;
72427;SDS011;60419;48.880;18.036;2022-07-23T16:13:09;11.40;;;6.68;;
72427;SDS011;60419;48.880;18.036;2022-07-23T16:15:54;13.70;;;6.28;;
72427;SDS011;60419;48.880;18.036;2022-07-23T16:18:40;10.32;;;6.32;;
72427;SDS011;60419;48.880;18.036;2022-07-23T16:21:25;9.30;;;6.45;;
72427;SDS011;60419;48.880;18.036;2022-07-23T16:24:11;9.80;;;6.43;;
72427;SDS011;60419;48.880;18.036;2022-07-23T16:26:56;7.70;;;6.05;;
72427;SDS011;60419;48.880;18.036;2022-07-23T16:29:42;9.30;;;6.40;;
72427;SDS011;60419;48.880;18.036;2022-07-23T16:32:27;8.90;;;6.10;;
72427;SDS011;60419;48.880;18.036;2022-07-23T16:35:12;11.60;;;6.13;;
72427;SDS011;60419;48.880;18.036;2022-07-23T16:37:58;9.35;;;6.20;;
72427;SDS011;60419;48.880;18.036;2022-07-23T16:40:46;11.13;;;6.28;;
72427;SDS011;60419;48.880;18.036;2022-07-23T16:43:32;9.98;;;6.75;;
72427;SDS011;60419;48.880;18.036;2022-07-23T16:46:19;9.07;;;6.80;;